Grenville, Canada
Current Conditions -  °F | °C
As of 8:00 AM on Saturday 20 Dec 2014 (Local Time) from CYMX Reporting Station
Few Clouds Few Clouds  
Wind Chill:   Ceiling: Unl
Heat Index:   Visibility: 25mi
Dew Point:   Wind: 2mph
Humidity: 85%   Direction: 50°NE
Pressure: 30.33"   Gusts: NA
Location:  45.63°N, 74.6°W
Report Text: CYMX 201300Z 05002KT 25SM FEW012 FEW250 M16/M18 A3033 RMK SC1CI1 SC TR CI TR SLP278
Loading
Personal Weather Stations






























Interactive Weather Map New forecast layout! Learn more

10-Day Weather Forecast

Advertisements
Track Severe Weather on mobile